sensor_id;sensor_type;location;lat;lon;timestamp;pressure;altitude;pressure_sealevel;temperature;humidity
51359;BME280;37448;51.588;7.248;2022-12-29T00:00:29;99683.41;;;8.95;89.84
51359;BME280;37448;51.588;7.248;2022-12-29T00:02:29;99689.38;;;8.99;89.77
51359;BME280;37448;51.588;7.248;2022-12-29T00:04:29;99672.84;;;9.00;90.42
51359;BME280;37448;51.588;7.248;2022-12-29T00:06:30;99685.06;;;8.98;89.39
51359;BME280;37448;51.588;7.248;2022-12-29T00:08:30;99684.88;;;9.04;89.29
51359;BME280;37448;51.588;7.248;2022-12-29T00:10:40;99677.94;;;9.03;89.42
51359;BME280;37448;51.588;7.248;2022-12-29T00:12:40;99669.22;;;9.05;89.54
51359;BME280;37448;51.588;7.248;2022-12-29T00:14:59;99658.88;;;9.02;89.84
51359;BME280;37448;51.588;7.248;2022-12-29T00:17:32;99650.19;;;9.03;89.40
51359;BME280;37448;51.588;7.248;2022-12-29T00:19:32;99647.53;;;9.05;89.99
51359;BME280;37448;51.588;7.248;2022-12-29T00:21:51;99645.66;;;9.09;89.83
51359;BME280;37448;51.588;7.248;2022-12-29T00:24:20;99642.22;;;9.08;89.77
51359;BME280;37448;51.588;7.248;2022-12-29T00:26:27;99644.78;;;9.10;89.92
51359;BME280;37448;51.588;7.248;2022-12-29T00:28:46;99642.97;;;9.12;89.74
51359;BME280;37448;51.588;7.248;2022-12-29T00:31:09;99636.91;;;9.11;90.03
51359;BME280;37448;51.588;7.248;2022-12-29T00:33:32;99641.47;;;9.04;89.48
51359;BME280;37448;51.588;7.248;2022-12-29T00:35:54;99637.19;;;9.02;89.40
51359;BME280;37448;51.588;7.248;2022-12-29T00:37:57;99637.13;;;9.05;90.40
51359;BME280;37448;51.588;7.248;2022-12-29T00:40:17;99646.72;;;9.03;90.65
51359;BME280;37448;51.588;7.248;2022-12-29T00:42:40;99644.97;;;9.03;89.60
51359;BME280;37448;51.588;7.248;2022-12-29T00:45:00;99622.22;;;9.09;90.37
51359;BME280;37448;51.588;7.248;2022-12-29T00:47:00;99628.41;;;9.06;89.95
51359;BME280;37448;51.588;7.248;2022-12-29T00:49:03;99622.94;;;9.14;89.99
51359;BME280;37448;51.588;7.248;2022-12-29T00:51:22;99614.31;;;9.12;90.27
51359;BME280;37448;51.588;7.248;2022-12-29T00:53:23;99622.19;;;9.10;90.38
51359;BME280;37448;51.588;7.248;2022-12-29T00:55:24;99614.56;;;9.04;89.80
51359;BME280;37448;51.588;7.248;2022-12-29T00:57:24;99615.44;;;9.03;89.78
51359;BME280;37448;51.588;7.248;2022-12-29T00:59:24;99611.94;;;9.04;90.11
51359;BME280;37448;51.588;7.248;2022-12-29T01:01:25;99614.56;;;9.04;90.81
51359;BME280;37448;51.588;7.248;2022-12-29T01:03:25;99618.00;;;9.06;90.82
51359;BME280;37448;51.588;7.248;2022-12-29T01:05:27;99613.69;;;9.05;89.89
51359;BME280;37448;51.588;7.248;2022-12-29T01:07:27;99619.75;;;9.04;90.68
51359;BME280;37448;51.588;7.248;2022-12-29T01:09:27;99625.84;;;9.04;90.64
51359;BME280;37448;51.588;7.248;2022-12-29T01:11:46;99617.88;;;9.09;90.76
51359;BME280;37448;51.588;7.248;2022-12-29T01:13:47;99617.78;;;9.12;91.64
51359;BME280;37448;51.588;7.248;2022-12-29T01:15:51;99611.72;;;9.12;91.28
51359;BME280;37448;51.588;7.248;2022-12-29T01:17:52;99609.91;;;9.14;91.57
51359;BME280;37448;51.588;7.248;2022-12-29T01:19:52;99609.88;;;9.15;90.79
51359;BME280;37448;51.588;7.248;2022-12-29T01:21:52;99609.06;;;9.13;91.05
51359;BME280;37448;51.588;7.248;2022-12-29T01:23:53;99595.34;;;9.08;91.09
51359;BME280;37448;51.588;7.248;2022-12-29T01:25:54;99605.56;;;9.14;90.78
51359;BME280;37448;51.588;7.248;2022-12-29T01:27:55;99607.22;;;9.17;90.55
51359;BME280;37448;51.588;7.248;2022-12-29T01:29:55;99596.84;;;9.15;90.94
51359;BME280;37448;51.588;7.248;2022-12-29T01:31:56;99593.34;;;9.16;91.39
51359;BME280;37448;51.588;7.248;2022-12-29T01:33:56;99595.16;;;9.14;90.74
51359;BME280;37448;51.588;7.248;2022-12-29T01:36:04;99588.91;;;9.20;91.23
51359;BME280;37448;51.588;7.248;2022-12-29T01:38:05;99593.22;;;9.19;90.54
51359;BME280;37448;51.588;7.248;2022-12-29T01:40:06;99596.63;;;9.22;91.02
51359;BME280;37448;51.588;7.248;2022-12-29T01:42:16;99579.50;;;9.14;90.67
51359;BME280;37448;51.588;7.248;2022-12-29T01:44:55;99591.53;;;9.18;90.90
51359;BME280;37448;51.588;7.248;2022-12-29T01:46:56;99579.03;;;9.30;91.15
51359;BME280;37448;51.588;7.248;2022-12-29T01:49:07;99565.16;;;9.28;90.91
51359;BME280;37448;51.588;7.248;2022-12-29T01:51:11;99574.75;;;9.27;90.06
51359;BME280;37448;51.588;7.248;2022-12-29T01:53:35;99582.44;;;9.32;89.81
51359;BME280;37448;51.588;7.248;2022-12-29T01:55:40;99580.41;;;9.40;89.03
51359;BME280;37448;51.588;7.248;2022-12-29T01:57:44;99575.19;;;9.40;89.92
51359;BME280;37448;51.588;7.248;2022-12-29T01:59:55;99572.56;;;9.42;89.91
51359;BME280;37448;51.588;7.248;2022-12-29T02:01:58;99576.91;;;9.41;90.08
51359;BME280;37448;51.588;7.248;2022-12-29T02:04:00;99575.19;;;9.40;89.29
51359;BME280;37448;51.588;7.248;2022-12-29T02:06:22;99569.88;;;9.43;89.42
51359;BME280;37448;51.588;7.248;2022-12-29T02:08:25;99572.34;;;9.48;88.62
51359;BME280;37448;51.588;7.248;2022-12-29T02:10:28;99568.88;;;9.47;89.68
51359;BME280;37448;51.588;7.248;2022-12-29T02:12:30;99562.63;;;9.52;89.03
51359;BME280;37448;51.588;7.248;2022-12-29T02:14:30;99562.63;;;9.52;89.19
51359;BME280;37448;51.588;7.248;2022-12-29T02:23:54;99549.56;;;9.53;88.54
51359;BME280;37448;51.588;7.248;2022-12-29T02:28:34;99553.72;;;9.59;87.88
51359;BME280;37448;51.588;7.248;2022-12-29T02:30:51;99550.94;;;9.63;87.54
51359;BME280;37448;51.588;7.248;2022-12-29T02:35:40;99548.19;;;9.68;86.50
51359;BME280;37448;51.588;7.248;2022-12-29T02:38:03;99551.81;;;9.64;86.99
51359;BME280;37448;51.588;7.248;2022-12-29T02:40:25;99559.75;;;9.61;87.12
51359;BME280;37448;51.588;7.248;2022-12-29T02:42:49;99544.66;;;9.69;86.22
51359;BME280;37448;51.588;7.248;2022-12-29T02:45:18;99552.25;;;9.75;86.50
51359;BME280;37448;51.588;7.248;2022-12-29T02:49:36;99540.13;;;9.74;86.21
51359;BME280;37448;51.588;7.248;2022-12-29T02:53:46;99533.97;;;9.77;85.71
51359;BME280;37448;51.588;7.248;2022-12-29T02:56:05;99532.22;;;9.77;85.57
51359;BME280;37448;51.588;7.248;2022-12-29T03:04:32;99529.50;;;9.81;85.52
51359;BME280;37448;51.588;7.248;2022-12-29T03:06:47;99552.97;;;9.81;85.52
51359;BME280;37448;51.588;7.248;2022-12-29T03:09:03;99536.47;;;9.80;85.14
51359;BME280;37448;51.588;7.248;2022-12-29T03:11:08;99540.53;;;9.87;84.30
51359;BME280;37448;51.588;7.248;2022-12-29T03:13:44;99537.09;;;9.87;84.10
51359;BME280;37448;51.588;7.248;2022-12-29T03:16:15;99528.50;;;9.85;84.58
51359;BME280;37448;51.588;7.248;2022-12-29T03:18:22;99524.84;;;9.89;84.16
51359;BME280;37448;51.588;7.248;2022-12-29T03:20:31;99543.78;;;9.94;84.07
51359;BME280;37448;51.588;7.248;2022-12-29T03:22:38;99532.63;;;9.90;84.43
51359;BME280;37448;51.588;7.248;2022-12-29T03:24:46;99528.25;;;9.91;84.93
51359;BME280;37448;51.588;7.248;2022-12-29T03:26:49;99535.28;;;9.89;84.65
51359;BME280;37448;51.588;7.248;2022-12-29T03:28:54;99531.13;;;9.83;84.76
51359;BME280;37448;51.588;7.248;2022-12-29T03:30:59;99522.13;;;9.92;83.81
51359;BME280;37448;51.588;7.248;2022-12-29T03:33:04;99525.66;;;9.91;84.73
51359;BME280;37448;51.588;7.248;2022-12-29T03:35:08;99512.72;;;9.88;84.06
51359;BME280;37448;51.588;7.248;2022-12-29T03:37:13;99508.31;;;9.90;84.50
51359;BME280;37448;51.588;7.248;2022-12-29T03:39:14;99513.53;;;9.90;84.19
51359;BME280;37448;51.588;7.248;2022-12-29T03:41:19;99504.94;;;9.86;85.43
51359;BME280;37448;51.588;7.248;2022-12-29T03:43:20;99511.16;;;9.84;84.77
51359;BME280;37448;51.588;7.248;2022-12-29T03:45:21;99502.53;;;9.82;84.44
51359;BME280;37448;51.588;7.248;2022-12-29T03:47:23;99493.16;;;9.76;84.64
51359;BME280;37448;51.588;7.248;2022-12-29T03:49:24;99501.78;;;9.78;84.08
51359;BME280;37448;51.588;7.248;2022-12-29T03:51:25;99483.28;;;9.84;83.72
51359;BME280;37448;51.588;7.248;2022-12-29T03:53:27;99496.91;;;9.93;84.23
51359;BME280;37448;51.588;7.248;2022-12-29T03:55:28;99493.56;;;9.89;83.43
51359;BME280;37448;51.588;7.248;2022-12-29T03:57:28;99497.72;;;9.95;83.94
51359;BME280;37448;51.588;7.248;2022-12-29T03:59:35;99505.53;;;9.95;83.62
51359;BME280;37448;51.588;7.248;2022-12-29T04:01:35;99496.81;;;9.96;84.26
51359;BME280;37448;51.588;7.248;2022-12-29T04:03:36;99512.56;;;9.93;84.33
51359;BME280;37448;51.588;7.248;2022-12-29T04:05:36;99487.47;;;9.88;84.97
51359;BME280;37448;51.588;7.248;2022-12-29T04:07:37;99496.22;;;9.87;85.01
51359;BME280;37448;51.588;7.248;2022-12-29T04:09:38;99495.25;;;9.90;84.71
51359;BME280;37448;51.588;7.248;2022-12-29T04:11:38;99484.16;;;9.85;85.31
51359;BME280;37448;51.588;7.248;2022-12-29T04:13:39;99477.25;;;9.84;85.19
51359;BME280;37448;51.588;7.248;2022-12-29T04:15:45;99478.28;;;9.80;85.55
51359;BME280;37448;51.588;7.248;2022-12-29T04:17:46;99476.44;;;9.82;85.45
51359;BME280;37448;51.588;7.248;2022-12-29T04:19:46;99470.44;;;9.80;85.86
51359;BME280;37448;51.588;7.248;2022-12-29T04:21:47;99478.28;;;9.80;85.56
51359;BME280;37448;51.588;7.248;2022-12-29T04:23:47;99478.19;;;9.81;85.80
51359;BME280;37448;51.588;7.248;2022-12-29T04:25:49;99466.03;;;9.82;86.02
51359;BME280;37448;51.588;7.248;2022-12-29T04:27:50;99470.44;;;9.80;86.24
51359;BME280;37448;51.588;7.248;2022-12-29T04:30:09;99452.41;;;9.73;86.61
51359;BME280;37448;51.588;7.248;2022-12-29T04:32:30;99443.78;;;9.71;85.46
51359;BME280;37448;51.588;7.248;2022-12-29T04:34:31;99454.28;;;9.70;85.78
51359;BME280;37448;51.588;7.248;2022-12-29T04:36:31;99443.78;;;9.71;85.96
51359;BME280;37448;51.588;7.248;2022-12-29T04:38:32;99450.66;;;9.74;85.79
51359;BME280;37448;51.588;7.248;2022-12-29T04:40:34;99443.78;;;9.71;86.23
51359;BME280;37448;51.588;7.248;2022-12-29T04:42:34;99447.38;;;9.69;85.33
51359;BME280;37448;51.588;7.248;2022-12-29T04:44:35;99438.69;;;9.68;85.26
51359;BME280;37448;51.588;7.248;2022-12-29T04:46:48;99443.78;;;9.71;85.84
51359;BME280;37448;51.588;7.248;2022-12-29T04:48:57;99439.47;;;9.70;85.30
51359;BME280;37448;51.588;7.248;2022-12-29T04:51:15;99435.19;;;9.69;84.53
51359;BME280;37448;51.588;7.248;2022-12-29T04:53:16;99432.53;;;9.71;84.57
51359;BME280;37448;51.588;7.248;2022-12-29T04:55:17;99442.69;;;9.79;84.12
51359;BME280;37448;51.588;7.248;2022-12-29T04:57:17;99433.03;;;9.81;84.55
51359;BME280;37448;51.588;7.248;2022-12-29T04:59:23;99430.31;;;9.84;83.21
51359;BME280;37448;51.588;7.248;2022-12-29T05:01:27;99435.16;;;9.93;84.29
51359;BME280;37448;51.588;7.248;2022-12-29T05:03:27;99446.50;;;9.92;82.99
51359;BME280;37448;51.588;7.248;2022-12-29T05:05:28;99449.66;;;10.00;83.06
51359;BME280;37448;51.588;7.248;2022-12-29T05:07:29;99452.19;;;10.03;82.50
51359;BME280;37448;51.588;7.248;2022-12-29T05:09:30;99450.28;;;10.07;82.59
51359;BME280;37448;51.588;7.248;2022-12-29T05:11:31;99447.63;;;10.09;81.81
51359;BME280;37448;51.588;7.248;2022-12-29T05:13:32;99459.41;;;10.19;81.85
51359;BME280;37448;51.588;7.248;2022-12-29T05:15:32;99460.88;;;10.26;79.90
51359;BME280;37448;51.588;7.248;2022-12-29T05:17:33;99453.84;;;10.28;81.08
51359;BME280;37448;51.588;7.248;2022-12-29T05:19:33;99466.09;;;10.26;80.72
51359;BME280;37448;51.588;7.248;2022-12-29T05:21:34;99452.97;;;10.28;80.38
51359;BME280;37448;51.588;7.248;2022-12-29T05:23:34;99454.56;;;10.32;80.28
51359;BME280;37448;51.588;7.248;2022-12-29T05:25:39;99458.69;;;10.38;79.06
51359;BME280;37448;51.588;7.248;2022-12-29T05:27:51;99466.38;;;10.42;80.05
51359;BME280;37448;51.588;7.248;2022-12-29T05:30:12;99475.94;;;10.42;79.36
51359;BME280;37448;51.588;7.248;2022-12-29T05:32:12;99469.66;;;10.47;79.13
51359;BME280;37448;51.588;7.248;2022-12-29T05:34:13;99473.78;;;10.53;78.67
51359;BME280;37448;51.588;7.248;2022-12-29T05:36:14;99463.47;;;10.50;79.70
51359;BME280;37448;51.588;7.248;2022-12-29T05:38:19;99464.38;;;10.49;78.70
51359;BME280;37448;51.588;7.248;2022-12-29T05:40:19;99454.78;;;10.50;78.09
51359;BME280;37448;51.588;7.248;2022-12-29T05:42:21;99467.69;;;10.53;79.85
51359;BME280;37448;51.588;7.248;2022-12-29T05:44:44;99471.97;;;10.55;78.53
51359;BME280;37448;51.588;7.248;2022-12-29T05:47:07;99488.41;;;10.57;78.63
51359;BME280;37448;51.588;7.248;2022-12-29T05:49:34;99500.78;;;10.52;78.50
51359;BME280;37448;51.588;7.248;2022-12-29T05:51:43;99503.28;;;10.55;78.73
51359;BME280;37448;51.588;7.248;2022-12-29T05:53:43;99505.94;;;10.54;77.69
51359;BME280;37448;51.588;7.248;2022-12-29T05:55:46;99517.41;;;10.50;78.02
51359;BME280;37448;51.588;7.248;2022-12-29T05:57:47;99506.22;;;10.46;77.21
51359;BME280;37448;51.588;7.248;2022-12-29T05:59:49;99496.69;;;10.45;75.63
51359;BME280;37448;51.588;7.248;2022-12-29T06:01:50;99496.78;;;10.43;76.97
51359;BME280;37448;51.588;7.248;2022-12-29T06:03:50;99510.88;;;10.38;76.65
51359;BME280;37448;51.588;7.248;2022-12-29T06:05:53;99511.56;;;10.43;77.18
51359;BME280;37448;51.588;7.248;2022-12-29T06:07:55;99515.88;;;10.44;76.72
51359;BME280;37448;51.588;7.248;2022-12-29T06:09:56;99526.53;;;10.38;76.26
51359;BME280;37448;51.588;7.248;2022-12-29T06:11:57;99524.97;;;10.33;77.60
51359;BME280;37448;51.588;7.248;2022-12-29T06:13:57;99528.59;;;10.29;77.08
51359;BME280;37448;51.588;7.248;2022-12-29T06:15:58;99519.78;;;10.32;77.71
51359;BME280;37448;51.588;7.248;2022-12-29T06:18:00;99523.38;;;10.29;77.96
51359;BME280;37448;51.588;7.248;2022-12-29T06:20:01;99539.63;;;10.36;78.04
51359;BME280;37448;51.588;7.248;2022-12-29T06:22:01;99560.41;;;10.39;78.10
51359;BME280;37448;51.588;7.248;2022-12-29T06:24:03;99563.78;;;10.43;77.89
51359;BME280;37448;51.588;7.248;2022-12-29T06:26:04;99553.41;;;10.41;78.15
51359;BME280;37448;51.588;7.248;2022-12-29T06:28:04;99565.56;;;10.42;77.67
51359;BME280;37448;51.588;7.248;2022-12-29T06:30:05;99569.06;;;10.41;78.46
51359;BME280;37448;51.588;7.248;2022-12-29T06:32:06;99563.06;;;10.38;79.07
51359;BME280;37448;51.588;7.248;2022-12-29T06:34:07;99559.91;;;10.29;79.16
51359;BME280;37448;51.588;7.248;2022-12-29T06:36:07;99559.91;;;10.29;79.85
51359;BME280;37448;51.588;7.248;2022-12-29T06:38:08;99561.81;;;10.24;79.71
51359;BME280;37448;51.588;7.248;2022-12-29T06:40:09;99567.03;;;10.24;80.01
51359;BME280;37448;51.588;7.248;2022-12-29T06:42:29;99568.06;;;10.20;79.68
51359;BME280;37448;51.588;7.248;2022-12-29T06:44:43;99567.94;;;10.23;79.71
51359;BME280;37448;51.588;7.248;2022-12-29T06:46:44;99580.91;;;10.26;81.35
51359;BME280;37448;51.588;7.248;2022-12-29T06:48:44;99576.69;;;10.22;81.03
51359;BME280;37448;51.588;7.248;2022-12-29T06:50:45;99583.69;;;10.22;80.82
51359;BME280;37448;51.588;7.248;2022-12-29T06:52:45;99584.50;;;10.22;80.60
51359;BME280;37448;51.588;7.248;2022-12-29T06:54:45;99595.75;;;10.24;81.62
51359;BME280;37448;51.588;7.248;2022-12-29T06:56:46;99598.44;;;10.23;80.92
51359;BME280;37448;51.588;7.248;2022-12-29T06:58:46;99599.22;;;10.25;79.92
51359;BME280;37448;51.588;7.248;2022-12-29T07:00:47;99590.44;;;10.27;79.61
51359;BME280;37448;51.588;7.248;2022-12-29T07:02:47;99589.66;;;10.25;80.74
51359;BME280;37448;51.588;7.248;2022-12-29T07:04:48;99586.31;;;10.20;79.94
51359;BME280;37448;51.588;7.248;2022-12-29T07:06:48;99581.09;;;10.20;80.29
51359;BME280;37448;51.588;7.248;2022-12-29T07:08:49;99587.13;;;10.22;78.33
51359;BME280;37448;51.588;7.248;2022-12-29T07:10:49;99584.50;;;10.22;77.19
51359;BME280;37448;51.588;7.248;2022-12-29T07:12:50;99589.66;;;10.25;77.67
51359;BME280;37448;51.588;7.248;2022-12-29T07:14:50;99588.81;;;10.23;78.71
51359;BME280;37448;51.588;7.248;2022-12-29T07:16:51;99582.66;;;10.26;77.94
51359;BME280;37448;51.588;7.248;2022-12-29T07:18:51;99578.19;;;10.29;78.14
51359;BME280;37448;51.588;7.248;2022-12-29T07:20:52;99593.88;;;10.28;77.40
51359;BME280;37448;51.588;7.248;2022-12-29T07:22:52;99586.81;;;10.31;77.75
51359;BME280;37448;51.588;7.248;2022-12-29T07:24:53;99593.03;;;10.27;78.45
51359;BME280;37448;51.588;7.248;2022-12-29T07:26:53;99594.75;;;10.28;78.08
51359;BME280;37448;51.588;7.248;2022-12-29T07:28:54;99593.88;;;10.28;78.67
51359;BME280;37448;51.588;7.248;2022-12-29T07:30:55;99585.31;;;10.24;77.96
51359;BME280;37448;51.588;7.248;2022-12-29T07:32:56;99582.94;;;10.18;78.79
51359;BME280;37448;51.588;7.248;2022-12-29T07:34:57;99588.16;;;10.18;78.65
51359;BME280;37448;51.588;7.248;2022-12-29T07:36:57;99594.88;;;10.25;79.11
51359;BME280;37448;51.588;7.248;2022-12-29T07:38:57;99599.22;;;10.25;79.39
51359;BME280;37448;51.588;7.248;2022-12-29T07:40:58;99615.94;;;10.19;79.77
51359;BME280;37448;51.588;7.248;2022-12-29T07:42:59;99622.97;;;10.17;79.70
51359;BME280;37448;51.588;7.248;2022-12-29T07:45:07;99630.13;;;10.12;79.66
51359;BME280;37448;51.588;7.248;2022-12-29T07:47:37;99614.47;;;10.12;80.07
51359;BME280;37448;51.588;7.248;2022-12-29T07:49:37;99630.34;;;10.05;79.14
51359;BME280;37448;51.588;7.248;2022-12-29T07:51:37;99647.69;;;10.07;78.69
51359;BME280;37448;51.588;7.248;2022-12-29T07:53:38;99638.09;;;10.07;79.08
51359;BME280;37448;51.588;7.248;2022-12-29T07:55:38;99643.31;;;10.07;79.77
51359;BME280;37448;51.588;7.248;2022-12-29T07:57:39;99658.13;;;10.07;79.11
51359;BME280;37448;51.588;7.248;2022-12-29T07:59:39;99653.84;;;10.04;79.24
51359;BME280;37448;51.588;7.248;2022-12-29T08:01:39;99645.25;;;10.02;77.80
51359;BME280;37448;51.588;7.248;2022-12-29T08:03:40;99649.50;;;10.04;75.71
51359;BME280;37448;51.588;7.248;2022-12-29T08:05:41;99661.66;;;10.05;77.66
51359;BME280;37448;51.588;7.248;2022-12-29T08:07:45;99652.03;;;10.06;76.95
51359;BME280;37448;51.588;7.248;2022-12-29T08:09:45;99646.91;;;10.04;78.54
51359;BME280;37448;51.588;7.248;2022-12-29T08:11:46;99653.06;;;10.02;76.57
51359;BME280;37448;51.588;7.248;2022-12-29T08:13:46;99653.81;;;10.05;78.35
51359;BME280;37448;51.588;7.248;2022-12-29T08:15:47;99652.22;;;10.01;79.01
51359;BME280;37448;51.588;7.248;2022-12-29T08:17:47;99661.03;;;9.97;76.52
51359;BME280;37448;51.588;7.248;2022-12-29T08:19:48;99647.81;;;10.03;74.79
51359;BME280;37448;51.588;7.248;2022-12-29T08:21:48;99651.09;;;10.09;79.25
51359;BME280;37448;51.588;7.248;2022-12-29T08:23:48;99661.84;;;9.99;75.75
51359;BME280;37448;51.588;7.248;2022-12-29T08:25:57;99663.66;;;9.97;75.86
51359;BME280;37448;51.588;7.248;2022-12-29T08:27:58;99672.38;;;9.96;76.00
51359;BME280;37448;51.588;7.248;2022-12-29T08:29:58;99647.16;;;9.97;76.40
51359;BME280;37448;51.588;7.248;2022-12-29T08:32:00;99673.88;;;10.03;76.34
51359;BME280;37448;51.588;7.248;2022-12-29T08:34:00;99661.75;;;10.02;73.58
51359;BME280;37448;51.588;7.248;2022-12-29T08:36:05;99667.59;;;10.09;73.96
51359;BME280;37448;51.588;7.248;2022-12-29T08:38:06;99676.16;;;10.13;75.79
51359;BME280;37448;51.588;7.248;2022-12-29T08:40:07;99674.84;;;10.26;75.13
51359;BME280;37448;51.588;7.248;2022-12-29T08:42:07;99665.13;;;10.30;74.57
51359;BME280;37448;51.588;7.248;2022-12-29T08:44:08;99672.59;;;10.41;73.94
51359;BME280;37448;51.588;7.248;2022-12-29T08:46:08;99666.56;;;10.39;73.67
51359;BME280;37448;51.588;7.248;2022-12-29T08:48:09;99676.19;;;10.37;72.66
51359;BME280;37448;51.588;7.248;2022-12-29T08:50:09;99673.56;;;10.38;72.33
51359;BME280;37448;51.588;7.248;2022-12-29T08:52:09;99677.13;;;10.36;74.55
51359;BME280;37448;51.588;7.248;2022-12-29T08:54:10;99681.41;;;10.37;73.39
51359;BME280;37448;51.588;7.248;2022-12-29T08:56:10;99683.13;;;10.38;73.35
51359;BME280;37448;51.588;7.248;2022-12-29T08:58:23;99681.66;;;10.30;72.54
51359;BME280;37448;51.588;7.248;2022-12-29T09:00:24;99690.38;;;10.29;72.15
51359;BME280;37448;51.588;7.248;2022-12-29T09:02:25;99687.69;;;10.31;73.35
51359;BME280;37448;51.588;7.248;2022-12-29T09:04:26;99685.06;;;10.32;72.38
51359;BME280;37448;51.588;7.248;2022-12-29T09:06:27;99688.69;;;10.28;73.48
51359;BME280;37448;51.588;7.248;2022-12-29T09:08:27;99688.84;;;10.24;73.47
51359;BME280;37448;51.588;7.248;2022-12-29T09:10:28;99688.88;;;10.22;77.20
51359;BME280;37448;51.588;7.248;2022-12-29T09:12:28;99685.66;;;10.15;77.11
51359;BME280;37448;51.588;7.248;2022-12-29T09:14:29;99698.59;;;10.18;76.71
51359;BME280;37448;51.588;7.248;2022-12-29T09:16:29;99691.84;;;10.11;75.82
51359;BME280;37448;51.588;7.248;2022-12-29T09:18:31;99715.50;;;10.32;75.67
51359;BME280;37448;51.588;7.248;2022-12-29T09:20:31;99700.78;;;10.80;71.60
51359;BME280;37448;51.588;7.248;2022-12-29T09:22:31;99692.22;;;11.23;73.56
51359;BME280;37448;51.588;7.248;2022-12-29T09:24:32;99700.81;;;11.47;73.18
51359;BME280;37448;51.588;7.248;2022-12-29T09:26:32;99701.44;;;11.54;69.26
51359;BME280;37448;51.588;7.248;2022-12-29T09:28:33;99701.13;;;11.61;68.64
51359;BME280;37448;51.588;7.248;2022-12-29T09:30:33;99702.41;;;11.94;71.56
51359;BME280;37448;51.588;7.248;2022-12-29T09:32:34;99717.75;;;12.03;67.27
51359;BME280;37448;51.588;7.248;2022-12-29T09:34:35;99709.44;;;12.14;65.51
51359;BME280;37448;51.588;7.248;2022-12-29T09:36:35;99714.84;;;12.30;65.00
51359;BME280;37448;51.588;7.248;2022-12-29T09:38:35;99717.47;;;12.51;65.40
51359;BME280;37448;51.588;7.248;2022-12-29T09:40:37;99721.50;;;12.58;63.16
51359;BME280;37448;51.588;7.248;2022-12-29T09:42:42;99711.81;;;12.40;64.58
51359;BME280;37448;51.588;7.248;2022-12-29T09:45:14;99707.78;;;12.12;65.97
51359;BME280;37448;51.588;7.248;2022-12-29T09:47:17;99714.44;;;11.77;67.13
51359;BME280;37448;51.588;7.248;2022-12-29T09:49:44;99722.34;;;11.54;68.10
51359;BME280;37448;51.588;7.248;2022-12-29T09:52:01;99713.81;;;11.26;69.03
51359;BME280;37448;51.588;7.248;2022-12-29T09:54:24;99706.78;;;11.06;70.31
51359;BME280;37448;51.588;7.248;2022-12-29T09:56:27;99713.94;;;11.01;67.75
51359;BME280;37448;51.588;7.248;2022-12-29T10:00:49;99710.75;;;10.93;70.76
51359;BME280;37448;51.588;7.248;2022-12-29T10:02:58;99714.84;;;10.76;70.01
51359;BME280;37448;51.588;7.248;2022-12-29T10:04:59;99711.72;;;10.66;69.68
51359;BME280;37448;51.588;7.248;2022-12-29T10:07:04;99717.88;;;10.65;70.42
51359;BME280;37448;51.588;7.248;2022-12-29T10:09:19;99718.81;;;10.62;72.00
51359;BME280;37448;51.588;7.248;2022-12-29T10:16:04;99708.47;;;10.59;68.90
51359;BME280;37448;51.588;7.248;2022-12-29T10:20:38;99729.38;;;10.59;70.64
51359;BME280;37448;51.588;7.248;2022-12-29T10:24:58;99720.66;;;10.59;67.18
51359;BME280;37448;51.588;7.248;2022-12-29T10:27:03;99729.38;;;10.59;67.52
51359;BME280;37448;51.588;7.248;2022-12-29T10:29:06;99732.53;;;10.68;69.16
51359;BME280;37448;51.588;7.248;2022-12-29T10:31:32;99730.97;;;10.63;67.22
51359;BME280;37448;51.588;7.248;2022-12-29T10:33:40;99720.41;;;10.67;70.15
51359;BME280;37448;51.588;7.248;2022-12-29T10:35:41;99728.31;;;10.65;66.73
51359;BME280;37448;51.588;7.248;2022-12-29T10:39:51;99715.94;;;10.70;66.74
51359;BME280;37448;51.588;7.248;2022-12-29T10:43:57;99729.91;;;10.69;67.90
51359;BME280;37448;51.588;7.248;2022-12-29T10:46:02;99729.16;;;10.66;68.68
51359;BME280;37448;51.588;7.248;2022-12-29T10:48:13;99705.72;;;10.64;69.57
51359;BME280;37448;51.588;7.248;2022-12-29T10:50:17;99732.03;;;10.58;66.68
51359;BME280;37448;51.588;7.248;2022-12-29T10:52:19;99726.09;;;10.54;69.01
51359;BME280;37448;51.588;7.248;2022-12-29T10:54:32;99730.50;;;10.52;68.85
51359;BME280;37448;51.588;7.248;2022-12-29T10:56:43;99738.34;;;10.52;69.13
51359;BME280;37448;51.588;7.248;2022-12-29T10:58:46;99732.38;;;10.48;66.25
51359;BME280;37448;51.588;7.248;2022-12-29T11:00:52;99727.03;;;10.52;66.81
51359;BME280;37448;51.588;7.248;2022-12-29T11:06:54;99734.88;;;10.52;67.51
51359;BME280;37448;51.588;7.248;2022-12-29T11:09:01;99733.03;;;10.54;68.37
51359;BME280;37448;51.588;7.248;2022-12-29T11:11:09;99735.53;;;10.57;67.74
51359;BME280;37448;51.588;7.248;2022-12-29T11:13:20;99753.88;;;10.55;66.49
51359;BME280;37448;51.588;7.248;2022-12-29T11:15:24;99744.09;;;10.62;67.29
51359;BME280;37448;51.588;7.248;2022-12-29T11:17:25;99748.44;;;10.61;69.15
51359;BME280;37448;51.588;7.248;2022-12-29T11:19:29;99760.69;;;10.59;65.03
51359;BME280;37448;51.588;7.248;2022-12-29T11:21:34;99748.41;;;10.63;65.11
51359;BME280;37448;51.588;7.248;2022-12-29T11:23:41;99758.09;;;10.59;69.15
51359;BME280;37448;51.588;7.248;2022-12-29T11:25:42;99750.94;;;10.65;69.48
51359;BME280;37448;51.588;7.248;2022-12-29T11:27:55;99764.22;;;10.58;68.04
51359;BME280;37448;51.588;7.248;2022-12-29T11:29:56;99770.19;;;10.62;66.51
51359;BME280;37448;51.588;7.248;2022-12-29T11:31:58;99779.66;;;10.65;68.29
51359;BME280;37448;51.588;7.248;2022-12-29T11:34:06;99774.44;;;10.65;65.96
51359;BME280;37448;51.588;7.248;2022-12-29T11:36:27;99778.94;;;10.61;64.48
51359;BME280;37448;51.588;7.248;2022-12-29T11:38:48;99765.81;;;10.62;64.94
51359;BME280;37448;51.588;7.248;2022-12-29T11:40:50;99789.19;;;10.66;66.39
51359;BME280;37448;51.588;7.248;2022-12-29T11:42:53;99781.38;;;10.66;66.78
51359;BME280;37448;51.588;7.248;2022-12-29T11:44:54;99793.59;;;10.65;64.33
51359;BME280;37448;51.588;7.248;2022-12-29T11:46:55;99775.91;;;10.72;65.65
51359;BME280;37448;51.588;7.248;2022-12-29T11:48:56;99781.97;;;10.74;65.84